createdAt,value
2019-02-10T00:01:15.031Z,13.30
2019-02-10T00:03:43.440Z,15.08
2019-02-10T00:06:11.841Z,12.75
2019-02-10T00:08:40.483Z,7.00
2019-02-10T00:11:09.128Z,12.53
2019-02-10T00:13:37.622Z,12.75
2019-02-10T00:16:11.506Z,20.40
2019-02-10T00:18:39.975Z,12.45
2019-02-10T00:21:08.413Z,20.00
2019-02-10T00:23:36.882Z,8.90
2019-02-10T00:26:05.535Z,17.37
2019-02-10T00:28:33.937Z,20.23
2019-02-10T00:31:02.356Z,10.82
2019-02-10T00:33:30.755Z,10.28
2019-02-10T00:35:59.175Z,12.55
2019-02-10T00:38:27.569Z,10.88
2019-02-10T00:40:56.062Z,20.30
2019-02-10T00:43:24.711Z,15.13
2019-02-10T00:45:53.426Z,19.77
2019-02-10T00:48:21.834Z,13.03
2019-02-10T00:50:50.229Z,9.73
2019-02-10T00:53:18.691Z,14.87
2019-02-10T00:55:47.115Z,17.10
2019-02-10T00:58:15.751Z,18.75
2019-02-10T01:00:44.529Z,11.15
2019-02-10T01:03:12.934Z,11.80
2019-02-10T01:05:41.329Z,17.17
2019-02-10T01:08:09.726Z,9.15
2019-02-10T01:10:38.371Z,13.55
2019-02-10T01:13:06.838Z,10.43
2019-02-10T01:15:35.502Z,15.70
2019-02-10T01:18:03.971Z,21.93
2019-02-10T01:20:32.370Z,12.30
2019-02-10T01:23:00.771Z,17.50
2019-02-10T01:25:29.239Z,6.95
2019-02-10T01:27:57.637Z,8.78
2019-02-10T01:30:26.186Z,7.45
2019-02-10T01:32:54.970Z,17.15
2019-02-10T01:35:23.382Z,12.98
2019-02-10T01:37:51.779Z,6.87
2019-02-10T01:40:20.193Z,13.58
2019-02-10T01:42:48.585Z,10.43
2019-02-10T01:45:17.926Z,11.28
2019-02-10T01:47:46.567Z,7.87
2019-02-10T01:50:15.199Z,15.10
2019-02-10T01:52:43.842Z,11.48
2019-02-10T01:55:13.642Z,10.40
2019-02-10T01:57:42.189Z,12.33
2019-02-10T02:00:13.638Z,12.47
2019-02-10T02:02:42.111Z,14.47
2019-02-10T02:05:10.616Z,13.10
2019-02-10T02:07:39.018Z,14.30
2019-02-10T02:10:10.445Z,14.35
2019-02-10T02:12:39.088Z,12.18
2019-02-10T02:15:15.366Z,7.37
2019-02-10T02:17:43.845Z,24.67
2019-02-10T02:20:13.377Z,8.08
2019-02-10T02:22:41.790Z,10.90
2019-02-10T02:25:11.832Z,6.25
2019-02-10T02:27:40.223Z,7.22
2019-02-10T02:30:11.459Z,20.15
2019-02-10T02:32:39.934Z,14.03
2019-02-10T02:35:09.008Z,11.28
2019-02-10T02:37:37.672Z,14.45
2019-02-10T02:40:08.978Z,7.20
2019-02-10T02:42:37.723Z,12.93
2019-02-10T02:45:09.145Z,8.70
2019-02-10T02:47:37.556Z,11.10
2019-02-10T02:50:08.309Z,16.37
2019-02-10T02:52:36.692Z,8.00
2019-02-10T02:55:07.409Z,13.15
2019-02-10T02:57:35.804Z,19.50
2019-02-10T03:00:05.656Z,9.13
2019-02-10T03:02:34.058Z,10.45
2019-02-10T03:05:02.454Z,8.55
2019-02-10T03:07:30.854Z,15.32
2019-02-10T03:09:59.502Z,10.32
2019-02-10T03:12:27.913Z,10.13
2019-02-10T03:14:56.327Z,16.62
2019-02-10T03:17:24.738Z,6.80
2019-02-10T03:19:53.162Z,14.50
2019-02-10T03:22:21.559Z,9.38
2019-02-10T03:24:49.981Z,13.38
2019-02-10T03:27:18.375Z,11.38
2019-02-10T03:29:47.020Z,13.30
2019-02-10T03:32:15.433Z,12.75
2019-02-10T03:34:43.827Z,9.00
2019-02-10T03:37:12.246Z,11.97
2019-02-10T03:39:40.734Z,13.22
2019-02-10T03:42:09.299Z,15.32
2019-02-10T03:44:37.726Z,13.88
2019-02-10T03:47:06.113Z,12.95
2019-02-10T03:49:34.522Z,8.80
2019-02-10T03:52:02.934Z,6.78
2019-02-10T03:54:31.338Z,16.35
2019-02-10T03:56:59.997Z,11.15
2019-02-10T03:59:28.682Z,16.00
2019-02-10T04:01:57.369Z,11.55
2019-02-10T04:04:26.016Z,9.10
2019-02-10T04:06:54.431Z,13.30
2019-02-10T04:09:22.822Z,11.60
2019-02-10T04:11:51.218Z,7.05
2019-02-10T04:14:19.636Z,9.93
2019-02-10T04:16:48.330Z,11.30
2019-02-10T04:19:16.738Z,13.13
2019-02-10T04:21:45.130Z,11.35
2019-02-10T04:24:13.765Z,7.33
2019-02-10T04:26:42.166Z,13.53
2019-02-10T04:29:10.562Z,9.28
2019-02-10T04:31:38.987Z,11.08
2019-02-10T04:34:07.383Z,9.53
2019-02-10T04:36:36.022Z,5.87
2019-02-10T04:39:05.653Z,5.97
2019-02-10T04:41:34.121Z,6.67
2019-02-10T04:44:02.527Z,5.15
2019-02-10T04:46:30.956Z,5.28
2019-02-10T04:48:59.354Z,12.40
2019-02-10T04:51:27.829Z,6.28
2019-02-10T04:53:56.218Z,7.55
2019-02-10T04:56:24.619Z,7.92
2019-02-10T04:58:53.018Z,5.58
2019-02-10T05:01:21.424Z,6.40
2019-02-10T05:03:49.810Z,5.22
2019-02-10T05:06:18.207Z,2.77
2019-02-10T05:08:46.613Z,2.55
2019-02-10T05:11:15.013Z,5.33
2019-02-10T05:13:43.658Z,8.50
2019-02-10T05:16:12.068Z,7.42
2019-02-10T05:18:40.446Z,6.37
2019-02-10T05:21:09.098Z,6.12
2019-02-10T05:23:37.519Z,3.90
2019-02-10T05:26:05.986Z,3.55
2019-02-10T05:28:34.392Z,3.83
2019-02-10T05:31:02.804Z,6.30
2019-02-10T05:33:31.437Z,5.78
2019-02-10T05:36:00.075Z,5.53
2019-02-10T05:38:28.475Z,5.55
2019-02-10T05:40:56.871Z,4.55
2019-02-10T05:43:25.527Z,4.87
2019-02-10T05:45:53.918Z,3.08
2019-02-10T05:48:22.316Z,3.27
2019-02-10T05:50:50.727Z,3.95
2019-02-10T05:53:19.373Z,2.98
2019-02-10T05:55:48.101Z,3.02
2019-02-10T05:58:16.503Z,6.00
2019-02-10T06:00:44.899Z,1.87
2019-02-10T06:03:13.290Z,4.08
2019-02-10T06:05:41.682Z,3.98
2019-02-10T06:08:13.480Z,2.98
2019-02-10T06:10:40.263Z,2.52
2019-02-10T06:13:08.896Z,5.05
2019-02-10T06:15:37.299Z,2.87
2019-02-10T06:18:05.730Z,5.92
2019-02-10T06:20:34.404Z,2.35
2019-02-10T06:23:02.811Z,5.00
2019-02-10T06:25:31.215Z,2.22
2019-02-10T06:27:59.605Z,2.80
2019-02-10T06:30:28.016Z,3.33
2019-02-10T06:32:56.658Z,1.95
2019-02-10T06:35:25.291Z,3.22
2019-02-10T06:37:54.010Z,2.47
2019-02-10T06:40:22.403Z,2.87
2019-02-10T06:42:50.811Z,1.45
2019-02-10T06:45:19.515Z,1.70
2019-02-10T06:47:47.909Z,1.90
2019-02-10T06:50:16.319Z,2.00
2019-02-10T06:52:44.959Z,2.55
2019-02-10T06:55:13.376Z,2.15
2019-02-10T06:57:42.256Z,2.62
2019-02-10T07:00:19.009Z,1.82
2019-02-10T07:03:25.142Z,2.05
2019-02-10T07:05:53.550Z,3.30
2019-02-10T07:08:30.155Z,2.42
2019-02-10T07:10:52.337Z,2.72
2019-02-10T07:13:23.809Z,1.57
2019-02-10T07:16:29.990Z,1.45
2019-02-10T07:19:24.017Z,2.47
2019-02-10T07:21:52.437Z,2.45
2019-02-10T07:24:41.937Z,1.50
2019-02-10T07:27:16.834Z,1.72
2019-02-10T07:30:05.619Z,2.37
2019-02-10T07:32:52.104Z,4.55
2019-02-10T07:35:23.820Z,1.55
2019-02-10T07:37:58.168Z,24.52
2019-02-10T07:40:55.563Z,1.75
2019-02-10T07:43:27.047Z,1.60
2019-02-10T07:46:01.463Z,2.52
2019-02-10T07:48:35.524Z,1.62
2019-02-10T07:51:23.698Z,2.45
2019-02-10T07:54:13.564Z,2.05
2019-02-10T07:56:45.047Z,4.33
2019-02-10T07:59:31.660Z,2.02
2019-02-10T08:02:08.733Z,2.08
2019-02-10T08:04:46.411Z,4.67
2019-02-10T08:07:23.608Z,2.10
2019-02-10T08:09:58.095Z,1.25
2019-02-10T08:12:32.252Z,1.20
2019-02-10T08:15:12.741Z,1.87
2019-02-10T08:17:44.218Z,1.62
2019-02-10T08:20:27.433Z,3.00
2019-02-10T08:23:20.203Z,1.67
2019-02-10T08:26:12.690Z,1.72
2019-02-10T08:28:58.754Z,1.25
2019-02-10T08:31:39.327Z,1.40
2019-02-10T08:34:10.819Z,2.50
2019-02-10T08:36:42.305Z,1.80
2019-02-10T08:39:32.130Z,7.37
2019-02-10T08:42:09.807Z,1.90
2019-02-10T08:44:46.540Z,2.05
2019-02-10T08:47:36.478Z,1.70
2019-02-10T08:50:27.763Z,1.62
2019-02-10T08:52:59.386Z,1.75
2019-02-10T08:55:27.840Z,2.50
2019-02-10T08:57:56.267Z,1.30
2019-02-10T09:00:24.979Z,1.62
2019-02-10T09:02:53.399Z,2.35
2019-02-10T09:05:22.031Z,1.45
2019-02-10T09:07:50.426Z,0.93
2019-02-10T09:10:18.838Z,1.82
2019-02-10T09:12:47.240Z,0.88
2019-02-10T09:15:15.633Z,1.45
2019-02-10T09:17:44.283Z,1.37
2019-02-10T09:20:12.745Z,1.00
2019-02-10T09:22:41.158Z,1.37
2019-02-10T09:25:11.742Z,1.60
2019-02-10T09:27:43.085Z,0.90
2019-02-10T09:30:13.412Z,1.67
2019-02-10T09:32:41.806Z,1.77
2019-02-10T09:35:10.265Z,9.73
2019-02-10T09:37:38.666Z,1.25
2019-02-10T09:40:09.994Z,1.75
2019-02-10T09:42:38.626Z,2.98
2019-02-10T09:45:10.411Z,1.80
2019-02-10T09:47:39.034Z,2.37
2019-02-10T09:50:14.280Z,1.55
2019-02-10T09:52:42.661Z,1.27
2019-02-10T09:55:11.122Z,1.72
2019-02-10T09:57:39.515Z,1.35
2019-02-10T10:00:13.071Z,1.05
2019-02-10T10:02:41.552Z,1.32
2019-02-10T10:05:12.774Z,1.70
2019-02-10T10:07:41.167Z,1.98
2019-02-10T10:10:13.859Z,1.02
2019-02-10T10:12:42.294Z,1.50
2019-02-10T10:17:52.871Z,1.50
2019-02-10T10:20:21.506Z,1.25
2019-02-10T10:22:49.901Z,1.30
2019-02-10T10:25:18.525Z,1.40
2019-02-10T10:27:47.159Z,2.95
2019-02-10T10:30:17.897Z,1.85
2019-02-10T10:32:46.281Z,2.15
2019-02-10T10:35:14.808Z,1.75
2019-02-10T10:37:43.237Z,1.60
2019-02-10T10:40:12.278Z,1.20
2019-02-10T10:42:40.687Z,1.32
2019-02-10T10:45:14.105Z,1.37
2019-02-10T10:47:42.617Z,4.60
2019-02-10T10:50:12.657Z,1.15
2019-02-10T10:52:48.354Z,1.82
2019-02-10T10:55:16.852Z,2.15
2019-02-10T10:57:45.229Z,1.50
2019-02-10T11:00:16.422Z,1.10
2019-02-10T11:02:45.107Z,3.00
2019-02-10T11:05:14.955Z,5.25
2019-02-10T11:07:44.017Z,3.50
2019-02-10T11:10:13.309Z,3.10
2019-02-10T11:12:41.716Z,1.90
2019-02-10T11:15:16.565Z,1.82
2019-02-10T11:17:45.340Z,1.10
2019-02-10T11:20:14.129Z,1.82
2019-02-10T11:22:42.525Z,3.08
2019-02-10T11:25:13.913Z,1.98
2019-02-10T11:27:42.778Z,2.33
2019-02-10T11:30:13.445Z,2.10
2019-02-10T11:32:41.829Z,1.30
2019-02-10T11:35:10.886Z,1.80
2019-02-10T11:37:39.701Z,1.52
2019-02-10T11:40:10.895Z,1.55
2019-02-10T11:42:42.177Z,1.50
2019-02-10T11:45:12.985Z,1.40
2019-02-10T11:47:41.616Z,2.08
2019-02-10T11:50:14.288Z,1.10
2019-02-10T11:52:42.681Z,4.10
2019-02-10T11:55:11.597Z,1.80
2019-02-10T11:57:39.988Z,1.17
2019-02-10T12:00:16.824Z,1.70
2019-02-10T12:02:45.285Z,1.32
2019-02-10T12:05:13.916Z,1.05
2019-02-10T12:07:42.377Z,0.82
2019-02-10T12:10:12.520Z,0.75
2019-02-10T12:12:40.929Z,1.72
2019-02-10T12:15:15.949Z,1.20
2019-02-10T12:17:44.586Z,0.88
2019-02-10T12:20:14.117Z,0.90
2019-02-10T12:22:49.821Z,1.67
2019-02-10T12:25:13.024Z,0.93
2019-02-10T12:27:41.698Z,0.80
2019-02-10T12:30:13.041Z,1.30
2019-02-10T12:32:41.469Z,0.80
2019-02-10T12:35:11.303Z,0.88
2019-02-10T12:37:39.768Z,0.60
2019-02-10T12:40:09.493Z,1.35
2019-02-10T12:42:38.122Z,2.02
2019-02-10T12:45:09.458Z,1.42
2019-02-10T12:47:38.147Z,0.50
2019-02-10T12:50:14.542Z,0.70
2019-02-10T12:52:42.936Z,0.95
2019-02-10T12:55:12.168Z,0.60
2019-02-10T12:57:40.856Z,0.70
2019-02-10T13:00:15.045Z,0.78
2019-02-10T13:02:43.430Z,1.25
2019-02-10T13:05:12.230Z,1.05
2019-02-10T13:07:40.954Z,1.02
2019-02-10T13:10:12.108Z,0.50
2019-02-10T13:12:40.805Z,0.50
2019-02-10T13:15:10.847Z,0.50
2019-02-10T13:17:39.869Z,0.50
2019-02-10T13:20:10.499Z,0.40
2019-02-10T13:22:38.964Z,0.50
2019-02-10T13:25:14.989Z,0.60
2019-02-10T13:27:43.705Z,0.70
2019-02-10T13:30:15.186Z,0.50
2019-02-10T13:33:03.210Z,0.40
2019-02-10T13:35:31.615Z,0.68
2019-02-10T13:38:00.296Z,0.55
2019-02-10T13:40:28.739Z,0.60
2019-02-10T13:42:57.402Z,0.50
2019-02-10T13:45:26.059Z,2.35
2019-02-10T13:47:54.463Z,0.40
2019-02-10T13:50:22.910Z,0.78
2019-02-10T13:52:51.311Z,0.40
2019-02-10T13:55:19.752Z,0.50
2019-02-10T13:57:48.179Z,0.50
2019-02-10T14:00:21.514Z,0.50
2019-02-10T14:02:49.935Z,0.42
2019-02-10T14:05:18.458Z,0.50
2019-02-10T14:07:47.025Z,0.57
2019-02-10T14:10:24.965Z,0.57
2019-02-10T14:12:47.007Z,0.55
2019-02-10T14:15:19.233Z,0.50
2019-02-10T14:17:47.631Z,2.35
2019-02-10T14:20:19.974Z,0.40
2019-02-10T14:22:48.375Z,0.40
2019-02-10T14:25:16.899Z,0.50
2019-02-10T14:27:45.571Z,0.50
2019-02-10T14:30:19.147Z,0.65
2019-02-10T14:32:47.582Z,0.50
2019-02-10T14:35:16.025Z,0.42
2019-02-10T14:37:44.437Z,0.50
2019-02-10T14:40:12.945Z,0.50
2019-02-10T14:42:41.346Z,0.50
2019-02-10T14:45:13.024Z,1.02
2019-02-10T14:47:41.428Z,0.50
2019-02-10T14:50:19.249Z,0.40
2019-02-10T14:52:47.711Z,0.40
2019-02-10T14:55:16.130Z,0.50
2019-02-10T14:57:44.535Z,0.50
2019-02-10T15:00:15.920Z,0.40
2019-02-10T15:02:44.472Z,0.40
2019-02-10T15:05:12.986Z,0.62
2019-02-10T15:07:41.614Z,0.55
2019-02-10T15:10:17.767Z,0.50
2019-02-10T15:12:46.388Z,0.50
2019-02-10T15:15:14.910Z,0.40
2019-02-10T15:17:43.594Z,0.50
2019-02-10T15:20:12.932Z,0.85
2019-02-10T15:22:41.531Z,1.07
2019-02-10T15:25:13.699Z,0.65
2019-02-10T15:27:42.176Z,0.70
2019-02-10T15:30:18.570Z,0.50
2019-02-10T15:32:47.229Z,0.40
2019-02-10T15:35:15.691Z,0.40
2019-02-10T15:37:44.109Z,0.40
2019-02-10T15:40:13.210Z,0.93
2019-02-10T15:42:41.678Z,0.50
2019-02-10T15:45:11.821Z,0.70
2019-02-10T15:47:40.243Z,0.50
2019-02-10T15:50:10.795Z,0.40
2019-02-10T15:52:39.218Z,0.62
2019-02-10T15:55:09.991Z,0.50
2019-02-10T15:57:38.399Z,0.40
2019-02-10T16:00:15.949Z,0.40
2019-02-10T16:02:44.385Z,0.40
2019-02-10T16:05:13.342Z,0.40
2019-02-10T16:07:41.991Z,0.42
2019-02-10T16:10:11.799Z,0.45
2019-02-10T16:12:40.234Z,0.57
2019-02-10T16:15:11.107Z,0.40
2019-02-10T16:17:39.606Z,0.78
2019-02-10T16:20:10.831Z,0.50
2019-02-10T16:22:39.545Z,0.40
2019-02-10T16:25:08.944Z,1.55
2019-02-10T16:27:37.342Z,0.40
2019-02-10T16:30:09.254Z,0.50
2019-02-10T16:32:37.730Z,0.55
2019-02-10T16:35:07.489Z,0.50
2019-02-10T16:37:35.965Z,0.60
2019-02-10T16:40:07.599Z,0.50
2019-02-10T16:42:36.021Z,0.70
2019-02-10T16:45:06.898Z,0.80
2019-02-10T16:47:35.294Z,0.60
2019-02-10T16:50:05.263Z,0.55
2019-02-10T16:52:33.944Z,0.50
2019-02-10T16:55:02.354Z,0.60
2019-02-10T16:57:31.206Z,1.00
2019-02-10T16:59:59.897Z,1.35
2019-02-10T17:02:28.342Z,0.50
2019-02-10T17:04:56.743Z,0.40
2019-02-10T17:07:25.175Z,0.50
2019-02-10T17:09:53.570Z,0.40
2019-02-10T17:12:21.988Z,0.50
2019-02-10T17:14:50.422Z,0.90
2019-02-10T17:17:19.159Z,0.40
2019-02-10T17:19:47.580Z,0.42
2019-02-10T17:22:16.003Z,0.50
2019-02-10T17:24:44.403Z,0.40
2019-02-10T17:27:12.981Z,0.50
2019-02-10T17:29:41.423Z,1.55
2019-02-10T17:32:09.814Z,0.50
2019-02-10T17:34:38.215Z,0.60
2019-02-10T17:37:06.911Z,0.50
2019-02-10T17:39:35.403Z,0.90
2019-02-10T17:42:03.806Z,0.50
2019-02-10T17:44:32.221Z,0.57
2019-02-10T17:47:00.944Z,0.40
2019-02-10T17:49:29.371Z,0.53
2019-02-10T17:51:57.906Z,0.40
2019-02-10T17:54:26.319Z,0.68
2019-02-10T17:56:54.788Z,0.47
2019-02-10T17:59:23.209Z,1.25
2019-02-10T18:01:51.615Z,0.50
2019-02-10T18:04:20.042Z,1.95
2019-02-10T18:06:48.662Z,0.57
2019-02-10T18:09:17.091Z,1.40
2019-02-10T18:11:45.492Z,0.98
2019-02-10T18:14:15.572Z,0.50
2019-02-10T18:16:46.002Z,0.60
2019-02-10T18:19:19.052Z,0.78
2019-02-10T18:21:51.492Z,0.60
2019-02-10T18:24:33.659Z,0.60
2019-02-10T18:27:03.735Z,0.50
2019-02-10T18:29:45.660Z,0.50
2019-02-10T18:32:18.929Z,0.50
2019-02-10T18:34:49.298Z,2.08
2019-02-10T18:37:25.654Z,0.50
2019-02-10T18:39:58.649Z,0.50
2019-02-10T18:42:28.697Z,0.60
2019-02-10T18:45:01.665Z,0.85
2019-02-10T18:47:34.424Z,1.52
2019-02-10T18:50:20.830Z,0.80
2019-02-10T18:53:00.387Z,0.85
2019-02-10T18:55:33.265Z,0.70
2019-02-10T18:58:05.770Z,0.60
2019-02-10T19:00:39.050Z,0.50
2019-02-10T19:03:24.628Z,0.70
2019-02-10T19:06:13.057Z,0.70
2019-02-10T19:08:49.123Z,0.40
2019-02-10T19:11:24.883Z,0.93
2019-02-10T19:14:03.535Z,0.93
2019-02-10T19:16:42.551Z,0.75
2019-02-10T19:19:21.529Z,0.85
2019-02-10T19:22:07.963Z,0.60
2019-02-10T19:24:47.507Z,0.50
2019-02-10T19:27:26.529Z,0.70
2019-02-10T19:30:14.691Z,0.55
2019-02-10T19:32:47.660Z,0.53
2019-02-10T19:35:17.724Z,0.70
2019-02-10T19:37:47.761Z,0.70
2019-02-10T19:43:18.866Z,0.50
2019-02-10T19:45:48.903Z,0.70
2019-02-10T19:48:24.932Z,0.80
2019-02-10T19:51:12.867Z,2.05
2019-02-10T19:53:55.180Z,0.60
2019-02-10T19:56:31.048Z,0.80
2019-02-10T19:59:04.046Z,0.60
2019-02-10T20:01:34.137Z,0.90
2019-02-10T20:04:04.419Z,0.60
2019-02-10T20:06:40.022Z,1.00
2019-02-10T20:09:26.238Z,0.60
2019-02-10T20:12:08.741Z,4.17
2019-02-10T20:14:53.818Z,0.60
2019-02-10T20:17:35.850Z,0.88
2019-02-10T20:20:20.456Z,0.80
2019-02-10T20:22:56.310Z,0.70
2019-02-10T20:25:26.372Z,2.27
2019-02-10T20:27:56.428Z,0.88
2019-02-10T20:30:29.171Z,0.60
2019-02-10T20:32:59.486Z,1.95
2019-02-10T20:35:29.532Z,0.60
2019-02-10T20:37:59.574Z,0.50
2019-02-10T20:40:47.620Z,1.07
2019-02-10T20:43:26.649Z,0.50
2019-02-10T20:46:11.684Z,0.50
2019-02-10T20:48:41.981Z,0.93
2019-02-10T20:51:14.603Z,0.40
2019-02-10T20:56:44.135Z,0.95
2019-02-10T20:59:29.415Z,0.50
2019-02-10T21:01:59.511Z,0.60
2019-02-10T21:04:35.810Z,0.57
2019-02-10T21:07:11.817Z,0.95
2019-02-10T21:09:41.856Z,0.40
2019-02-10T21:12:20.348Z,1.95
2019-02-10T21:14:46.713Z,0.85
2019-02-10T21:17:16.801Z,0.40
2019-02-10T21:19:59.330Z,0.50
2019-02-10T21:22:47.453Z,0.88
2019-02-10T21:25:33.655Z,0.50
2019-02-10T21:28:09.413Z,0.60
2019-02-10T21:30:45.192Z,0.80
2019-02-10T21:33:24.249Z,0.60
2019-02-10T21:36:00.490Z,1.20
2019-02-10T21:38:30.799Z,0.60
2019-02-10T21:41:00.832Z,1.20
2019-02-10T21:43:30.873Z,1.72
2019-02-10T21:46:01.265Z,0.60
2019-02-10T21:48:31.378Z,0.70
2019-02-10T21:50:59.774Z,1.10
2019-02-10T21:53:28.407Z,0.70
2019-02-10T21:55:57.052Z,0.60
2019-02-10T21:58:25.686Z,0.90
2019-02-10T22:00:54.320Z,0.65
2019-02-10T22:03:22.969Z,0.65
2019-02-10T22:05:51.607Z,0.50
2019-02-10T22:08:20.376Z,0.85
2019-02-10T22:10:48.819Z,0.60
2019-02-10T22:13:17.218Z,0.90
2019-02-10T22:15:45.637Z,0.80
2019-02-10T22:18:14.013Z,1.98
2019-02-10T22:20:42.646Z,1.45
2019-02-10T22:23:11.042Z,1.00
2019-02-10T22:25:40.460Z,1.77
2019-02-10T22:28:09.009Z,2.75
2019-02-10T22:30:37.446Z,1.00
2019-02-10T22:33:05.890Z,1.45
2019-02-10T22:35:34.506Z,1.00
2019-02-10T22:38:03.165Z,1.07
2019-02-10T22:40:31.808Z,0.80
2019-02-10T22:43:00.202Z,0.60
2019-02-10T22:45:30.774Z,1.22
2019-02-10T22:47:59.413Z,1.32
2019-02-10T22:50:28.050Z,1.10
2019-02-10T22:52:56.437Z,1.10
2019-02-10T22:55:25.076Z,0.80
2019-02-10T22:57:53.702Z,1.20
2019-02-10T23:00:41.446Z,1.10
2019-02-10T23:03:09.821Z,0.90
2019-02-10T23:05:38.521Z,1.15
2019-02-10T23:08:07.162Z,6.78
2019-02-10T23:10:35.560Z,1.30
2019-02-10T23:13:04.226Z,1.60
2019-02-10T23:15:32.862Z,1.27
2019-02-10T23:18:01.502Z,1.95
2019-02-10T23:20:30.240Z,1.10
2019-02-10T23:22:58.609Z,1.25
2019-02-10T23:25:27.018Z,1.50
2019-02-10T23:27:55.643Z,1.00
2019-02-10T23:30:24.041Z,1.30
2019-02-10T23:32:52.462Z,1.25
2019-02-10T23:35:20.901Z,0.95
2019-02-10T23:37:49.538Z,1.10
2019-02-10T23:40:18.166Z,1.40
2019-02-10T23:42:46.583Z,1.45
2019-02-10T23:45:15.072Z,0.95
2019-02-10T23:47:43.505Z,4.28
2019-02-10T23:50:11.991Z,1.22
2019-02-10T23:52:40.667Z,1.00
2019-02-10T23:55:09.119Z,1.15
2019-02-10T23:57:37.682Z,1.00
